Time;durP1;ratioP1;P1;durP2;ratioP2;P2;SDS_P1;SDS_P2;PMS_P1;PMS_P2;Temp;Humidity;BMP_temperature;BMP_pressure;BME280_temperature;BME280_humidity;BME280_pressure;Samples;Min_cycle;Max_cycle;Signal;HPM_P1;HPM_P2
2023/06/07 00:01:54;;;;;;;5.37;3.80;;;17.60;73.90;;;;;;20912523;28;20234;-60
2023/06/07 00:11:56;;;;;;;7.30;4.03;;;17.70;74.50;;;;;;20912596;28;20225;-60
2023/06/07 00:21:58;;;;;;;7.93;3.80;;;17.70;74.80;;;;;;20912217;28;20239;-60
2023/06/07 00:32:02;;;;;;;5.20;3.70;;;17.70;74.80;;;;;;20912016;28;20226;-60
2023/06/07 00:42:05;;;;;;;6.90;3.80;;;17.70;75.20;;;;;;20911221;28;20231;-60
2023/06/07 00:52:07;;;;;;;4.70;3.33;;;17.80;75.50;;;;;;20910625;28;20282;-60
2023/06/07 01:02:09;;;;;;;7.40;3.70;;;17.90;75.80;;;;;;20910875;28;20238;-59
2023/06/07 01:12:15;;;;;;;5.47;3.60;;;17.90;75.80;;;;;;20910532;28;20212;-61
2023/06/07 01:22:21;;;;;;;5.97;3.50;;;17.90;76.20;;;;;;20925686;28;20254;-60
2023/06/07 01:32:24;;;;;;;5.93;3.47;;;18.00;76.10;;;;;;20924886;28;20218;-61
2023/06/07 01:42:27;;;;;;;4.57;3.63;;;18.00;76.20;;;;;;20923476;28;20618;-61
2023/06/07 01:52:29;;;;;;;6.00;3.70;;;18.00;76.40;;;;;;20922796;28;20241;-63
2023/06/07 02:02:45;;;;;;;4.27;3.63;;;18.10;76.60;;;;;;20922555;28;20287;-60
2023/06/07 02:12:49;;;;;;;5.03;4.00;;;18.10;76.80;;;;;;20869794;28;20267;-61
2023/06/07 02:22:52;;;;;;;6.03;3.97;;;18.10;77.00;;;;;;20772041;28;20306;-60
2023/06/07 02:32:53;;;;;;;4.13;3.30;;;18.10;77.30;;;;;;20766475;28;20690;-60
2023/06/07 02:42:55;;;;;;;4.97;3.57;;;18.20;77.50;;;;;;20836991;28;20213;-61
2023/06/07 02:52:57;;;;;;;4.53;3.50;;;18.20;77.70;;;;;;20909922;28;20244;-60
2023/06/07 03:02:59;;;;;;;6.23;3.77;;;18.20;77.80;;;;;;20917257;28;20205;-62
2023/06/07 03:13:02;;;;;;;4.83;3.70;;;18.20;78.10;;;;;;20916778;28;20228;-60
2023/06/07 03:23:04;;;;;;;6.70;3.60;;;18.20;78.30;;;;;;20916547;28;20212;-61
2023/06/07 03:33:06;;;;;;;5.13;3.60;;;18.30;78.40;;;;;;20915404;28;20232;-60
2023/06/07 03:43:08;;;;;;;5.73;3.80;;;18.20;78.80;;;;;;20915085;28;20202;-60
2023/06/07 03:53:10;;;;;;;4.63;3.80;;;18.20;79.00;;;;;;20913646;28;20240;-66
2023/06/07 04:03:12;;;;;;;6.07;3.90;;;18.30;79.20;;;;;;20912962;28;20208;-59
2023/06/07 04:13:14;;;;;;;11.60;3.97;;;18.30;79.10;;;;;;20912992;28;20228;-59
2023/06/07 04:23:16;;;;;;;7.97;4.13;;;18.40;79.10;;;;;;20912198;28;20244;-59
2023/06/07 04:33:19;;;;;;;6.90;3.90;;;18.30;79.30;;;;;;20911308;28;20583;-61
2023/06/07 04:43:23;;;;;;;7.03;3.70;;;18.40;79.00;;;;;;20894087;28;20629;-62
2023/06/07 04:53:24;;;;;;;7.73;4.07;;;18.50;78.80;;;;;;20919984;28;20280;-60
2023/06/07 05:03:26;;;;;;;23.83;4.87;;;18.60;78.60;;;;;;20926998;28;20237;-60
2023/06/07 05:13:28;;;;;;;7.13;4.07;;;18.60;78.10;;;;;;20926564;28;20760;-59
2023/06/07 05:23:30;;;;;;;18.83;5.00;;;18.70;78.00;;;;;;20925191;28;20700;-63
2023/06/07 05:33:31;;;;;;;11.17;4.37;;;18.80;77.50;;;;;;20906530;28;20230;-60
2023/06/07 05:43:33;;;;;;;5.93;4.43;;;18.90;77.80;;;;;;20924273;28;20611;-59
2023/06/07 05:53:35;;;;;;;11.87;4.83;;;19.10;77.30;;;;;;20922961;28;20678;-60
2023/06/07 06:03:37;;;;;;;10.43;4.50;;;19.50;76.80;;;;;;20919712;28;20658;-61
2023/06/07 06:13:39;;;;;;;9.27;4.80;;;19.60;76.40;;;;;;20912140;28;20314;-60
2023/06/07 06:23:41;;;;;;;11.27;5.37;;;19.60;76.10;;;;;;20865333;28;20223;-62
2023/06/07 06:33:43;;;;;;;7.93;5.53;;;19.60;76.40;;;;;;20855815;28;20231;-61
2023/06/07 06:44:06;;;;;;;8.60;6.17;;;19.80;76.50;;;;;;20919299;28;20234;-66
2023/06/07 06:54:16;;;;;;;12.20;8.50;;;20.50;76.30;;;;;;20913370;28;20721;-62
2023/06/07 07:04:17;;;;;;;8.40;7.07;;;21.10;75.30;;;;;;20916802;28;20294;-64
2023/06/07 07:14:19;;;;;;;7.83;6.47;;;21.30;75.20;;;;;;20916142;28;20319;-69
2023/06/07 07:24:21;;;;;;;10.77;6.40;;;21.40;75.90;;;;;;20915827;28;20220;-70
2023/06/07 07:34:22;;;;;;;6.50;5.50;;;21.90;75.40;;;;;;20914445;28;20254;-67
2023/06/07 07:44:24;;;;;;;5.50;4.40;;;22.00;75.10;;;;;;20914181;28;20232;-68
2023/06/07 07:54:27;;;;;;;4.77;4.27;;;22.10;75.00;;;;;;20913248;28;20271;-69
2023/06/07 08:04:29;;;;;;;8.73;5.20;;;22.20;74.40;;;;;;20912364;28;20270;-69
2023/06/07 08:14:31;;;;;;;6.43;5.50;;;22.20;74.20;;;;;;20912268;28;20274;-69
2023/06/07 08:24:33;;;;;;;5.53;4.97;;;22.20;74.10;;;;;;20910740;28;20928;-62
2023/06/07 08:34:39;;;;;;;6.67;4.47;;;22.30;73.80;;;;;;20884409;28;20233;-61
2023/06/07 08:44:41;;;;;;;4.30;3.90;;;22.40;73.20;;;;;;20833565;28;20228;-61
2023/06/07 08:54:45;;;;;;;6.50;4.60;;;22.80;72.00;;;;;;20910770;28;20597;-60
2023/06/07 09:04:47;;;;;;;12.53;4.50;;;23.00;70.40;;;;;;20909868;28;20205;-60
2023/06/07 09:14:51;;;;;;;4.57;3.80;;;22.90;70.30;;;;;;20910140;28;20227;-60
2023/06/07 09:24:53;;;;;;;8.27;3.37;;;23.20;69.80;;;;;;20909185;28;20208;-64
2023/06/07 09:35:12;;;;;;;4.67;4.00;;;23.60;66.90;;;;;;20910642;28;20594;-66
2023/06/07 09:45:17;;;;;;;3.60;3.30;;;23.60;65.70;;;;;;20922564;28;20238;-60
2023/06/07 09:55:29;;;;;;;6.60;3.50;;;23.90;64.60;;;;;;20922303;28;20278;-62
2023/06/07 10:05:32;;;;;;;4.97;3.67;;;24.10;63.60;;;;;;20921490;28;20207;-62
2023/06/07 10:15:35;;;;;;;5.23;3.77;;;24.20;63.20;;;;;;20920920;28;20652;-63
2023/06/07 10:25:52;;;;;;;6.87;4.13;;;24.50;61.70;;;;;;20902513;28;20243;-61
2023/06/07 10:35:55;;;;;;;4.73;4.10;;;24.70;61.10;;;;;;20911477;28;20598;-69
2023/06/07 10:46:16;;;;;;;6.17;4.10;;;24.50;62.00;;;;;;20916689;28;20243;-70
2023/06/07 10:56:33;;;;;;;4.30;3.90;;;24.80;60.60;;;;;;20917686;28;20330;-60
2023/06/07 11:07:14;;;;;;;6.80;3.83;;;24.90;60.30;;;;;;20916790;28;20278;-60
2023/06/07 11:17:51;;;;;;;5.67;4.40;;;25.00;59.70;;;;;;20916048;28;20273;-69
2023/06/07 11:27:53;;;;;;;12.17;7.03;;;24.50;59.60;;;;;;20916023;28;20227;-66
2023/06/07 11:37:55;;;;;;;4.47;3.70;;;24.50;59.40;;;;;;20914324;28;20318;-61
2023/06/07 11:48:00;;;;;;;6.33;4.00;;;25.40;58.30;;;;;;20914100;28;20235;-61
2023/06/07 11:58:03;;;;;;;4.90;3.83;;;25.80;57.50;;;;;;20913847;28;20241;-59
2023/06/07 12:08:16;;;;;;;3.67;3.37;;;25.40;56.70;;;;;;20913367;28;20214;-68
2023/06/07 12:18:20;;;;;;;4.00;3.70;;;25.50;56.40;;;;;;20911912;28;20321;-68
2023/06/07 12:28:25;;;;;;;5.87;3.63;;;25.30;56.30;;;;;;20912149;28;20215;-68
2023/06/07 12:38:27;;;;;;;4.60;3.30;;;25.30;56.40;;;;;;20911172;28;20236;-68
2023/06/07 12:48:29;;;;;;;4.57;3.57;;;25.40;56.10;;;;;;20911028;28;20234;-65
2023/06/07 12:58:30;;;;;;;3.80;3.50;;;25.80;54.60;;;;;;20910581;28;20231;-63
2023/06/07 13:08:32;;;;;;;3.70;3.20;;;26.00;54.70;;;;;;20909426;28;20197;-69
2023/06/07 13:18:38;;;;;;;5.50;3.50;;;26.10;53.90;;;;;;20925470;28;20254;-68
2023/06/07 13:28:44;;;;;;;3.40;3.10;;;26.30;53.00;;;;;;20924678;28;20764;-63
2023/06/07 13:38:45;;;;;;;10.53;4.43;;;26.70;52.10;;;;;;20904423;28;20235;-65
2023/06/07 13:48:48;;;;;;;4.37;3.30;;;26.90;51.30;;;;;;20922433;28;20337;-65
2023/06/07 13:58:49;;;;;;;4.03;3.40;;;26.80;50.70;;;;;;20922156;28;20232;-67
2023/06/07 14:08:51;;;;;;;5.83;3.60;;;26.60;50.20;;;;;;20921270;28;20235;-60
2023/06/07 14:18:53;;;;;;;3.97;3.50;;;26.80;48.90;;;;;;20920944;28;20633;-63
2023/06/07 14:28:55;;;;;;;4.05;3.50;;;26.80;48.80;;;;;;20879250;28;20636;-59
2023/06/07 14:38:57;;;;;;;6.22;3.50;;;28.70;47.40;;;;;;20899520;28;20274;-58
2023/06/07 14:48:58;;;;;;;4.15;3.72;;;28.50;47.80;;;;;;20919185;28;20592;-64
2023/06/07 14:59:00;;;;;;;5.28;3.22;;;29.30;46.50;;;;;;20918171;28;20286;-59
2023/06/07 15:09:03;;;;;;;4.30;3.47;;;30.80;44.50;;;;;;20916320;28;20260;-66
2023/06/07 15:19:05;;;;;;;4.10;3.70;;;31.60;42.40;;;;;;20913274;28;20318;-60
2023/06/07 15:29:07;;;;;;;22.58;3.78;;;33.70;39.60;;;;;;20915813;28;20203;-66
2023/06/07 15:39:10;;;;;;;5.32;3.63;;;32.60;39.80;;;;;;20914065;28;20385;-66
2023/06/07 15:49:11;;;;;;;4.68;3.38;;;31.50;40.20;;;;;;20912784;28;20271;-59
2023/06/07 15:59:13;;;;;;;12.25;3.78;;;33.90;37.60;;;;;;20914091;28;20275;-62
2023/06/07 16:09:15;;;;;;;17.42;3.72;;;35.10;36.70;;;;;;20913168;28;20246;-61
2023/06/07 16:19:17;;;;;;;15.30;3.80;;;37.30;35.60;;;;;;20912296;28;20278;-62
2023/06/07 16:29:18;;;;;;;12.07;3.83;;;41.40;31.70;;;;;;20894693;28;20294;-60
2023/06/07 16:39:20;;;;;;;10.15;3.55;;;35.60;35.10;;;;;;20911461;28;20282;-58
2023/06/07 16:49:25;;;;;;;8.35;3.90;;;33.30;37.70;;;;;;20920667;28;20232;-65
2023/06/07 16:59:27;;;;;;;6.57;3.80;;;34.10;37.70;;;;;;20927796;28;20289;-60
2023/06/07 17:09:29;;;;;;;6.20;4.07;;;36.50;34.70;;;;;;20927293;28;20246;-64
2023/06/07 17:19:30;;;;;;;5.22;4.07;;;34.60;35.60;;;;;;20907779;28;20572;-64
2023/06/07 17:29:33;;;;;;;4.15;3.60;;;37.40;32.20;;;;;;20925100;28;20214;-62
2023/06/07 17:39:35;;;;;;;7.00;6.30;;;38.50;30.90;;;;;;20924491;28;20236;-61
2023/06/07 17:49:36;;;;;;;4.75;4.13;;;36.30;33.10;;;;;;20923427;28;20783;-60
2023/06/07 17:59:38;;;;;;;5.50;4.50;;;35.80;33.40;;;;;;20905581;28;20319;-65
2023/06/07 18:09:43;;;;;;;15.50;5.65;;;33.50;36.30;;;;;;20922385;28;20330;-67
2023/06/07 18:19:45;;;;;;;7.25;4.72;;;29.90;42.10;;;;;;20921325;28;20232;-61
2023/06/07 18:29:47;;;;;;;218.47;13.83;;;28.20;45.00;;;;;;20920928;28;20283;-64
2023/06/07 18:39:49;;;;;;;5.20;4.70;;;27.20;47.00;;;;;;20908036;28;20742;-62
2023/06/07 18:49:51;;;;;;;6.37;4.90;;;26.50;48.30;;;;;;20879345;28;20268;-64
2023/06/07 18:59:53;;;;;;;8.47;5.17;;;25.90;49.80;;;;;;20832865;28;20255;-63
2023/06/07 19:09:55;;;;;;;11.13;5.07;;;25.40;51.00;;;;;;20834303;28;20291;-60
2023/06/07 19:19:59;;;;;;;16.50;5.00;;;25.00;52.10;;;;;;20834363;28;20228;-61
2023/06/07 19:30:01;;;;;;;9.37;5.23;;;24.70;52.90;;;;;;20833144;28;20243;-63
2023/06/07 19:40:07;;;;;;;9.70;6.03;;;24.50;53.90;;;;;;20871810;28;20239;-61
2023/06/07 19:50:10;;;;;;;10.93;6.07;;;24.20;54.50;;;;;;20871220;28;20243;-66
2023/06/07 20:00:12;;;;;;;7.00;5.70;;;24.00;55.20;;;;;;20875093;28;20267;-67
2023/06/07 20:10:14;;;;;;;12.53;5.87;;;23.70;55.70;;;;;;20869923;28;20652;-61
2023/06/07 20:20:16;;;;;;;7.63;5.03;;;23.50;56.30;;;;;;20867110;28;20231;-68
2023/06/07 20:30:18;;;;;;;9.73;5.20;;;23.30;56.70;;;;;;20870629;28;20211;-63
2023/06/07 20:40:21;;;;;;;7.20;5.33;;;23.10;57.00;;;;;;20867767;28;20711;-69
2023/06/07 20:50:23;;;;;;;6.33;5.40;;;22.90;57.50;;;;;;20880439;28;20235;-68
2023/06/07 21:00:26;;;;;;;6.27;5.37;;;22.80;58.00;;;;;;20859880;28;20318;-66
2023/06/07 21:10:28;;;;;;;8.70;5.93;;;22.50;58.50;;;;;;20843863;28;20492;-71
2023/06/07 21:20:30;;;;;;;8.70;5.30;;;22.30;58.80;;;;;;20863964;28;20243;-58
2023/06/07 21:30:32;;;;;;;5.73;5.13;;;22.10;59.20;;;;;;20863976;28;20243;-61
2023/06/07 21:40:35;;;;;;;8.10;5.67;;;22.00;60.00;;;;;;20881902;28;20716;-63
2023/06/07 21:50:37;;;;;;;11.67;5.83;;;21.80;60.70;;;;;;20877415;28;20267;-67
2023/06/07 22:00:39;;;;;;;7.17;6.37;;;21.70;61.90;;;;;;20875168;28;20239;-58
2023/06/07 22:10:41;;;;;;;6.80;6.10;;;21.50;62.40;;;;;;20880785;28;20239;-59
2023/06/07 22:20:44;;;;;;;6.87;6.20;;;21.50;63.20;;;;;;20875436;28;20670;-64
2023/06/07 22:30:46;;;;;;;7.40;6.60;;;21.30;64.10;;;;;;20872181;28;20266;-58
2023/06/07 22:40:48;;;;;;;7.50;6.23;;;21.10;64.90;;;;;;20879922;28;20325;-64
2023/06/07 22:55:54;;;;;;;7.73;6.30;;;20.90;65.40;;;;;;20937435;28;21094;-66
2023/06/07 23:06:00;;;;;;;12.47;6.90;;;20.60;67.00;;;;;;20820613;28;20233;-61
2023/06/07 23:16:02;;;;;;;12.70;6.90;;;20.60;67.70;;;;;;20818207;28;20216;-60
2023/06/07 23:26:04;;;;;;;9.90;7.30;;;20.60;68.90;;;;;;20817514;28;20290;-70
2023/06/07 23:36:07;;;;;;;8.03;6.70;;;20.40;70.90;;;;;;20816479;28;20212;-58
2023/06/07 23:46:09;;;;;;;7.70;6.67;;;20.40;71.50;;;;;;20815524;28;20606;-59
2023/06/07 23:56:11;;;;;;;7.20;6.03;;;20.40;71.90;;;;;;20815218;28;20302;-58
